Flight Track Log - Related Links

Times and Time Zones

All times are in EDT time to prevent confusion due to time zone crossing. See the EJA658 flight status page for this flight to view local times or setup timezone preferences in your user account.


Time Position Orientation Groundspeed Altitude Reporting Facility
EDT Latitude Longitude Course Direction KTS MPH feet Rate Location/Type
Wed 01:47:56 PM 42.4667 -71.3167 246° West 203 234 1,300  Level KA90
Wed 01:48:56 PM 42.4500 -71.3667 246° West 203 234 2,500 850 Climbing KA90
Wed 01:49:56 PM 42.3833 -71.3500 170° South 231 266 3,000 1,086 Climbing KA90
Wed 01:50:52 PM 42.3389 -71.3644 194° South 246 283 4,600 2,859 Climbing Boston Center
Wed 01:52:04 PM 42.3150 -71.4828 255° West 244 281 9,100 3,500 Climbing Boston Center
Wed 01:53:04 PM 42.3158 -71.5836 271° West 255 293 12,300 2,227 Climbing Boston Center
Wed 01:54:16 PM 42.2981 -71.7186 260° West 289 333 14,000 531 Climbing Boston Center
Wed 01:56:16 PM 42.2619 -71.9883 260° West 354 407 14,000 -67 Level Boston Center
Wed 01:57:16 PM 42.2436 -72.1203 259° West 359 413 13,800 -550 Descending Boston Center
Wed 01:58:16 PM 42.2272 -72.2439 260° West 348 400 12,900 -950 Descending Boston Center
Wed 01:59:16 PM 42.2108 -72.3672 260° West 343 395 11,900 -500 Descending Boston Center
Wed 02:00:16 PM 42.1919 -72.4906 258° West 343 395 11,900  Level Boston Center
Wed 02:01:16 PM 42.1772 -72.6111 261° West 338 389 11,900  Level Boston Center
Wed 02:02:16 PM 42.1603 -72.7369 260° West 338 389 11,900  Level Boston Center
Wed 02:03:16 PM 42.1536 -72.8631 266° West 338 389 11,900  Level Boston Center
Wed 02:04:16 PM 42.1447 -72.9833 264° West 331 381 11,900  Level Boston Center
Wed 02:05:16 PM 42.1381 -73.0981 266° West 331 381 11,900  Level Boston Center
Wed 02:06:16 PM 42.1289 -73.2322 265° West 331 381 11,900  Level Boston Center
Wed 02:07:28 PM 42.1175 -73.3553 263° West 331 381 11,900  Level Boston Center
Wed 02:08:28 PM 42.1078 -73.5036 265° West 331 381 11,900  Level Boston Center
Wed 02:09:28 PM 42.1211 -73.6242 279° West 326 375 11,900  Level Boston Center
Wed 02:10:28 PM 42.1492 -73.7394 288° West 326 375 11,900  Level Boston Center
Wed 02:11:28 PM 42.1686 -73.8464 284° West 332 382 11,900  Level Boston Center
Wed 02:12:28 PM 42.1775 -73.9725 275° West 315 362 11,900  Level Boston Center
Wed 02:13:28 PM 42.1467 -74.0839 250° West 312 359 11,900  Level Boston Center
Wed 02:14:28 PM 42.0992 -74.1944 240° Southwest 334 384 11,900 -350 Level Boston Center
Wed 02:15:28 PM 42.0581 -74.2911 240° Southwest 339 390 11,200 -850 Descending Boston Center
Wed 02:16:28 PM 41.9839 -74.3672 217° Southwest 317 365 10,200 -650 Descending Boston Center
Wed 02:17:28 PM 41.9122 -74.4153 207° Southwest 317 365 9,900 -500 Descending Boston Center
Wed 02:18:28 PM 41.8319 -74.4742 209° Southwest 312 359 9,200 -1,000 Descending Boston Center
Wed 02:19:28 PM 41.7769 -74.5142 208° Southwest 274 315 7,900 -1,100 Descending Boston Center
Wed 02:20:28 PM 41.7017 -74.5367 193° South 254 292 7,000 -500 Descending Boston Center
Wed 02:21:28 PM 41.6550 -74.5683 207° Southwest 229 264 6,900  Descending Boston Center
Wed 02:22:28 PM 41.6025 -74.6000 204° Southwest 197 227 7,000 50 Climbing Boston Center
Wed 02:23:28 PM 41.5378 -74.5978 179° South 230 265 7,000 -350 Level Boston Center
Wed 02:24:28 PM 41.4628 -74.5925 177° South 251 289 6,300 -317 Descending Boston Center
Wed 02:26:37 PM 41.3167 -74.6167 187° South 256 295 6,000 -381 Descending New York TRACON
Wed 02:27:37 PM 41.2500 -74.5833 159° South 258 297 5,100 -1,200 Descending New York TRACON
Wed 02:28:37 PM 41.1833 -74.5500 159° South 249 287 3,600 -1,050 Descending New York TRACON
Wed 02:29:37 PM 41.1167 -74.5167 159° South 230 265 3,000 -286 Descending New York TRACON
Wed 02:30:43 PM 41.0667 -74.4833 153° Southeast 188 216 3,000  Level New York TRACON
Wed 02:31:37 PM 41.0500 -74.4333 114° Southeast 175 201 3,000  Level New York TRACON
Wed 02:32:37 PM 41.0333 -74.3667 108° East 212 244 3,000 -150 Level New York TRACON
Wed 02:33:37 PM 41.0000 -74.3000 124° Southeast 216 249 2,700 -500 Descending New York TRACON
Wed 02:34:37 PM 40.9500 -74.2667 153° Southeast 177 204 2,000 -350 Descending New York TRACON
Wed 02:35:37 PM 40.9167 -74.3000 217° Southwest 153 176 2,000  Level New York TRACON
Wed 02:36:37 PM 40.8833 -74.3333 217° Southwest 164 189 2,000 -400 Level New York TRACON
Wed 02:37:37 PM 40.8500 -74.3667 217° Southwest 147 169 1,200 -500 Descending New York TRACON
Wed 02:38:37 PM 40.8167 -74.4000 217° Southwest 137 158 1,000 -200 Descending New York TRACON

Login

Don't have an account? Register now (free) for customized features, flight alerts, and more!